sensor_id;sensor_type;location;lat;lon;timestamp;temperature;humidity
22161;DHT22;49035;48.812;11.762;2023-07-22T00:00:15;10.50;99.90
22161;DHT22;49035;48.812;11.762;2023-07-22T00:02:42;10.50;99.90
22161;DHT22;49035;48.812;11.762;2023-07-22T00:05:08;10.50;99.90
22161;DHT22;49035;48.812;11.762;2023-07-22T00:07:35;10.40;99.90
22161;DHT22;49035;48.812;11.762;2023-07-22T00:10:01;10.40;99.90
22161;DHT22;49035;48.812;11.762;2023-07-22T00:12:27;10.40;99.90
22161;DHT22;49035;48.812;11.762;2023-07-22T00:14:52;10.40;99.90
22161;DHT22;49035;48.812;11.762;2023-07-22T00:17:21;10.50;99.90
22161;DHT22;49035;48.812;11.762;2023-07-22T00:19:47;10.40;99.90
22161;DHT22;49035;48.812;11.762;2023-07-22T00:22:14;10.40;99.90
22161;DHT22;49035;48.812;11.762;2023-07-22T00:24:40;10.40;99.90
22161;DHT22;49035;48.812;11.762;2023-07-22T00:27:06;10.30;99.90
22161;DHT22;49035;48.812;11.762;2023-07-22T00:29:34;10.20;99.90
22161;DHT22;49035;48.812;11.762;2023-07-22T00:32:00;10.20;99.90
22161;DHT22;49035;48.812;11.762;2023-07-22T00:34:25;10.20;99.90
22161;DHT22;49035;48.812;11.762;2023-07-22T00:36:51;10.30;99.90
22161;DHT22;49035;48.812;11.762;2023-07-22T00:39:17;10.20;99.90
22161;DHT22;49035;48.812;11.762;2023-07-22T00:41:43;10.20;99.90
22161;DHT22;49035;48.812;11.762;2023-07-22T00:44:10;10.20;99.90
22161;DHT22;49035;48.812;11.762;2023-07-22T00:46:37;10.10;99.90
22161;DHT22;49035;48.812;11.762;2023-07-22T00:49:02;10.10;99.90
22161;DHT22;49035;48.812;11.762;2023-07-22T00:51:29;10.10;99.90
22161;DHT22;49035;48.812;11.762;2023-07-22T00:53:55;10.10;99.90
22161;DHT22;49035;48.812;11.762;2023-07-22T00:56:21;10.10;99.90
22161;DHT22;49035;48.812;11.762;2023-07-22T00:58:47;10.10;99.90
22161;DHT22;49035;48.812;11.762;2023-07-22T01:01:12;10.10;99.90
22161;DHT22;49035;48.812;11.762;2023-07-22T01:03:38;10.20;99.90
22161;DHT22;49035;48.812;11.762;2023-07-22T01:06:04;10.20;99.90
22161;DHT22;49035;48.812;11.762;2023-07-22T01:08:29;10.20;99.90
22161;DHT22;49035;48.812;11.762;2023-07-22T01:10:55;10.10;99.90
22161;DHT22;49035;48.812;11.762;2023-07-22T01:13:21;10.00;99.90
22161;DHT22;49035;48.812;11.762;2023-07-22T01:15:46;9.90;99.90
22161;DHT22;49035;48.812;11.762;2023-07-22T01:18:12;9.70;99.90
22161;DHT22;49035;48.812;11.762;2023-07-22T01:20:38;9.60;99.90
22161;DHT22;49035;48.812;11.762;2023-07-22T01:23:04;9.60;99.90
22161;DHT22;49035;48.812;11.762;2023-07-22T01:25:30;9.60;99.90
22161;DHT22;49035;48.812;11.762;2023-07-22T01:27:56;9.50;99.90
22161;DHT22;49035;48.812;11.762;2023-07-22T01:30:21;9.40;99.90
22161;DHT22;49035;48.812;11.762;2023-07-22T01:32:47;9.40;99.90
22161;DHT22;49035;48.812;11.762;2023-07-22T01:35:13;9.40;99.90
22161;DHT22;49035;48.812;11.762;2023-07-22T01:37:39;9.40;99.90
22161;DHT22;49035;48.812;11.762;2023-07-22T01:40:05;9.40;99.90
22161;DHT22;49035;48.812;11.762;2023-07-22T01:42:43;9.40;99.90
22161;DHT22;49035;48.812;11.762;2023-07-22T01:45:10;9.40;99.90
22161;DHT22;49035;48.812;11.762;2023-07-22T01:47:37;9.40;99.90
22161;DHT22;49035;48.812;11.762;2023-07-22T01:50:03;9.30;99.90
22161;DHT22;49035;48.812;11.762;2023-07-22T01:52:29;9.30;99.90
22161;DHT22;49035;48.812;11.762;2023-07-22T01:54:55;9.50;99.90
22161;DHT22;49035;48.812;11.762;2023-07-22T01:57:20;9.70;99.90
22161;DHT22;49035;48.812;11.762;2023-07-22T01:59:46;9.80;99.90
22161;DHT22;49035;48.812;11.762;2023-07-22T02:02:12;9.90;99.90
22161;DHT22;49035;48.812;11.762;2023-07-22T02:04:37;10.10;99.90
22161;DHT22;49035;48.812;11.762;2023-07-22T02:07:03;10.10;99.90
22161;DHT22;49035;48.812;11.762;2023-07-22T02:09:28;10.10;99.90
22161;DHT22;49035;48.812;11.762;2023-07-22T02:11:54;10.00;99.90
22161;DHT22;49035;48.812;11.762;2023-07-22T02:14:19;9.90;99.90
22161;DHT22;49035;48.812;11.762;2023-07-22T02:16:45;9.70;99.90
22161;DHT22;49035;48.812;11.762;2023-07-22T02:19:11;9.70;99.90
22161;DHT22;49035;48.812;11.762;2023-07-22T02:21:36;9.60;99.90
22161;DHT22;49035;48.812;11.762;2023-07-22T02:24:02;9.40;99.90
22161;DHT22;49035;48.812;11.762;2023-07-22T02:26:27;9.30;99.90
22161;DHT22;49035;48.812;11.762;2023-07-22T02:28:53;9.30;99.90
22161;DHT22;49035;48.812;11.762;2023-07-22T02:31:20;9.40;99.90
22161;DHT22;49035;48.812;11.762;2023-07-22T02:33:47;9.50;99.90
22161;DHT22;49035;48.812;11.762;2023-07-22T02:36:13;9.50;99.90
22161;DHT22;49035;48.812;11.762;2023-07-22T02:38:39;9.40;99.90
22161;DHT22;49035;48.812;11.762;2023-07-22T02:41:05;9.50;99.90
22161;DHT22;49035;48.812;11.762;2023-07-22T02:43:32;9.40;99.90
22161;DHT22;49035;48.812;11.762;2023-07-22T02:45:59;9.40;99.90
22161;DHT22;49035;48.812;11.762;2023-07-22T02:48:25;9.40;99.90
22161;DHT22;49035;48.812;11.762;2023-07-22T02:50:50;9.30;99.90
22161;DHT22;49035;48.812;11.762;2023-07-22T02:53:16;9.20;99.90
22161;DHT22;49035;48.812;11.762;2023-07-22T02:55:41;9.10;99.90
22161;DHT22;49035;48.812;11.762;2023-07-22T02:58:07;9.00;99.90
22161;DHT22;49035;48.812;11.762;2023-07-22T03:00:32;8.90;99.90
22161;DHT22;49035;48.812;11.762;2023-07-22T03:02:58;8.80;99.90
22161;DHT22;49035;48.812;11.762;2023-07-22T03:05:29;8.90;99.90
22161;DHT22;49035;48.812;11.762;2023-07-22T03:07:55;8.80;99.90
22161;DHT22;49035;48.812;11.762;2023-07-22T03:10:21;8.60;99.90
22161;DHT22;49035;48.812;11.762;2023-07-22T03:12:47;8.60;99.90
22161;DHT22;49035;48.812;11.762;2023-07-22T03:15:12;8.50;99.90
22161;DHT22;49035;48.812;11.762;2023-07-22T03:17:39;8.50;99.90
22161;DHT22;49035;48.812;11.762;2023-07-22T03:20:07;8.50;99.90
22161;DHT22;49035;48.812;11.762;2023-07-22T03:22:35;8.50;99.90
22161;DHT22;49035;48.812;11.762;2023-07-22T03:25:01;8.40;99.90
22161;DHT22;49035;48.812;11.762;2023-07-22T03:27:27;8.50;99.90
22161;DHT22;49035;48.812;11.762;2023-07-22T03:29:53;8.60;99.90
22161;DHT22;49035;48.812;11.762;2023-07-22T03:32:19;8.80;99.90
22161;DHT22;49035;48.812;11.762;2023-07-22T03:34:44;8.80;99.90
22161;DHT22;49035;48.812;11.762;2023-07-22T03:37:10;8.80;99.90
22161;DHT22;49035;48.812;11.762;2023-07-22T03:39:35;8.80;99.90
22161;DHT22;49035;48.812;11.762;2023-07-22T03:42:01;8.80;99.90
22161;DHT22;49035;48.812;11.762;2023-07-22T03:44:26;8.80;99.90
22161;DHT22;49035;48.812;11.762;2023-07-22T03:46:54;8.90;99.90
22161;DHT22;49035;48.812;11.762;2023-07-22T03:49:19;9.00;99.90
22161;DHT22;49035;48.812;11.762;2023-07-22T03:51:45;9.10;99.90
22161;DHT22;49035;48.812;11.762;2023-07-22T03:54:10;9.40;99.90
22161;DHT22;49035;48.812;11.762;2023-07-22T03:56:39;9.60;99.90
22161;DHT22;49035;48.812;11.762;2023-07-22T03:59:05;9.40;99.90
22161;DHT22;49035;48.812;11.762;2023-07-22T04:01:31;9.30;99.90
22161;DHT22;49035;48.812;11.762;2023-07-22T04:03:56;9.20;99.90
22161;DHT22;49035;48.812;11.762;2023-07-22T04:06:22;9.20;99.90
22161;DHT22;49035;48.812;11.762;2023-07-22T04:08:47;9.10;99.90
22161;DHT22;49035;48.812;11.762;2023-07-22T04:11:13;9.10;99.90
22161;DHT22;49035;48.812;11.762;2023-07-22T04:13:39;9.20;99.90
22161;DHT22;49035;48.812;11.762;2023-07-22T04:16:05;9.40;99.90
22161;DHT22;49035;48.812;11.762;2023-07-22T04:18:31;9.50;99.90
22161;DHT22;49035;48.812;11.762;2023-07-22T04:21:00;9.60;99.90
22161;DHT22;49035;48.812;11.762;2023-07-22T04:23:26;9.70;99.90
22161;DHT22;49035;48.812;11.762;2023-07-22T04:25:52;10.20;99.90
22161;DHT22;49035;48.812;11.762;2023-07-22T04:28:17;10.70;99.90
22161;DHT22;49035;48.812;11.762;2023-07-22T04:30:43;11.50;99.90
22161;DHT22;49035;48.812;11.762;2023-07-22T04:33:08;12.00;99.90
22161;DHT22;49035;48.812;11.762;2023-07-22T04:35:37;12.00;99.90
22161;DHT22;49035;48.812;11.762;2023-07-22T04:38:04;12.10;99.90
22161;DHT22;49035;48.812;11.762;2023-07-22T04:40:30;12.40;99.90
22161;DHT22;49035;48.812;11.762;2023-07-22T04:42:56;12.70;99.90
22161;DHT22;49035;48.812;11.762;2023-07-22T04:45:22;13.20;99.90
22161;DHT22;49035;48.812;11.762;2023-07-22T04:47:51;13.60;99.90
22161;DHT22;49035;48.812;11.762;2023-07-22T04:50:17;14.00;99.90
22161;DHT22;49035;48.812;11.762;2023-07-22T04:52:46;14.40;99.90
22161;DHT22;49035;48.812;11.762;2023-07-22T04:55:12;15.00;99.90
22161;DHT22;49035;48.812;11.762;2023-07-22T04:57:38;15.60;99.90
22161;DHT22;49035;48.812;11.762;2023-07-22T05:00:09;16.10;99.90
22161;DHT22;49035;48.812;11.762;2023-07-22T05:02:35;16.50;99.90
22161;DHT22;49035;48.812;11.762;2023-07-22T05:05:00;16.90;99.90
22161;DHT22;49035;48.812;11.762;2023-07-22T05:07:26;17.40;99.90
22161;DHT22;49035;48.812;11.762;2023-07-22T05:09:52;17.80;99.90
22161;DHT22;49035;48.812;11.762;2023-07-22T05:12:18;18.50;99.90
22161;DHT22;49035;48.812;11.762;2023-07-22T05:14:45;19.10;99.90
22161;DHT22;49035;48.812;11.762;2023-07-22T05:17:11;19.70;99.90
22161;DHT22;49035;48.812;11.762;2023-07-22T05:19:36;20.10;99.90
22161;DHT22;49035;48.812;11.762;2023-07-22T05:22:02;20.50;99.90
22161;DHT22;49035;48.812;11.762;2023-07-22T05:24:28;20.80;99.90
22161;DHT22;49035;48.812;11.762;2023-07-22T05:26:53;20.80;99.90
22161;DHT22;49035;48.812;11.762;2023-07-22T05:29:19;21.00;99.90
22161;DHT22;49035;48.812;11.762;2023-07-22T05:31:45;21.10;99.90
22161;DHT22;49035;48.812;11.762;2023-07-22T05:34:11;21.40;99.90
22161;DHT22;49035;48.812;11.762;2023-07-22T05:36:38;21.70;99.90
22161;DHT22;49035;48.812;11.762;2023-07-22T05:39:04;21.50;97.60
22161;DHT22;49035;48.812;11.762;2023-07-22T05:41:29;21.20;99.90
22161;DHT22;49035;48.812;11.762;2023-07-22T05:43:55;21.40;99.20
22161;DHT22;49035;48.812;11.762;2023-07-22T05:46:20;21.90;97.40
22161;DHT22;49035;48.812;11.762;2023-07-22T05:48:46;22.00;93.60
22161;DHT22;49035;48.812;11.762;2023-07-22T05:51:12;20.90;95.40
22161;DHT22;49035;48.812;11.762;2023-07-22T05:53:38;20.90;96.60
22161;DHT22;49035;48.812;11.762;2023-07-22T05:56:04;21.50;97.40
22161;DHT22;49035;48.812;11.762;2023-07-22T05:58:30;21.90;95.10
22161;DHT22;49035;48.812;11.762;2023-07-22T06:00:56;22.00;94.20
22161;DHT22;49035;48.812;11.762;2023-07-22T06:03:21;22.70;93.40
22161;DHT22;49035;48.812;11.762;2023-07-22T06:05:47;23.10;92.90
22161;DHT22;49035;48.812;11.762;2023-07-22T06:08:13;23.50;86.80
22161;DHT22;49035;48.812;11.762;2023-07-22T06:10:40;22.00;88.40
22161;DHT22;49035;48.812;11.762;2023-07-22T06:13:06;20.70;93.10
22161;DHT22;49035;48.812;11.762;2023-07-22T06:15:31;20.70;95.20
22161;DHT22;49035;48.812;11.762;2023-07-22T06:17:57;20.90;94.10
22161;DHT22;49035;48.812;11.762;2023-07-22T06:20:23;20.80;96.40
22161;DHT22;49035;48.812;11.762;2023-07-22T06:22:48;21.10;93.30
22161;DHT22;49035;48.812;11.762;2023-07-22T06:25:14;21.20;93.10
22161;DHT22;49035;48.812;11.762;2023-07-22T06:27:40;20.90;94.80
22161;DHT22;49035;48.812;11.762;2023-07-22T06:30:06;21.50;93.60
22161;DHT22;49035;48.812;11.762;2023-07-22T06:32:31;22.10;93.80
22161;DHT22;49035;48.812;11.762;2023-07-22T06:34:57;22.70;92.70
22161;DHT22;49035;48.812;11.762;2023-07-22T06:37:23;22.90;90.70
22161;DHT22;49035;48.812;11.762;2023-07-22T06:39:50;22.80;90.50
22161;DHT22;49035;48.812;11.762;2023-07-22T06:42:15;23.00;92.30
22161;DHT22;49035;48.812;11.762;2023-07-22T06:44:42;23.40;90.80
22161;DHT22;49035;48.812;11.762;2023-07-22T06:47:07;23.60;85.40
22161;DHT22;49035;48.812;11.762;2023-07-22T06:49:33;23.90;87.70
22161;DHT22;49035;48.812;11.762;2023-07-22T06:51:59;24.60;85.80
22161;DHT22;49035;48.812;11.762;2023-07-22T06:54:24;24.70;80.20
22161;DHT22;49035;48.812;11.762;2023-07-22T06:56:50;24.20;83.10
22161;DHT22;49035;48.812;11.762;2023-07-22T06:59:15;24.40;84.00
22161;DHT22;49035;48.812;11.762;2023-07-22T07:01:41;24.70;83.90
22161;DHT22;49035;48.812;11.762;2023-07-22T07:04:06;25.00;82.60
22161;DHT22;49035;48.812;11.762;2023-07-22T07:06:32;25.30;81.30
22161;DHT22;49035;48.812;11.762;2023-07-22T07:09:01;25.20;75.70
22161;DHT22;49035;48.812;11.762;2023-07-22T07:11:28;24.50;78.20
22161;DHT22;49035;48.812;11.762;2023-07-22T07:13:54;24.20;80.80
22161;DHT22;49035;48.812;11.762;2023-07-22T07:16:28;24.30;82.80
22161;DHT22;49035;48.812;11.762;2023-07-22T07:18:54;24.70;82.70
22161;DHT22;49035;48.812;11.762;2023-07-22T07:21:21;25.00;81.70
22161;DHT22;49035;48.812;11.762;2023-07-22T07:23:47;25.10;78.10
22161;DHT22;49035;48.812;11.762;2023-07-22T07:26:13;25.00;77.90
22161;DHT22;49035;48.812;11.762;2023-07-22T07:28:38;25.10;79.70
22161;DHT22;49035;48.812;11.762;2023-07-22T07:31:04;24.40;76.80
22161;DHT22;49035;48.812;11.762;2023-07-22T07:33:30;24.40;81.00
22161;DHT22;49035;48.812;11.762;2023-07-22T07:35:56;24.60;75.30
22161;DHT22;49035;48.812;11.762;2023-07-22T07:38:21;24.50;78.30
22161;DHT22;49035;48.812;11.762;2023-07-22T07:41:01;24.00;78.20
22161;DHT22;49035;48.812;11.762;2023-07-22T07:43:27;23.20;82.40
22161;DHT22;49035;48.812;11.762;2023-07-22T07:46:29;23.50;82.60
22161;DHT22;49035;48.812;11.762;2023-07-22T07:48:57;23.80;81.10
22161;DHT22;49035;48.812;11.762;2023-07-22T07:51:24;24.40;80.70
22161;DHT22;49035;48.812;11.762;2023-07-22T07:53:52;24.60;79.00
22161;DHT22;49035;48.812;11.762;2023-07-22T07:56:18;24.20;78.20
22161;DHT22;49035;48.812;11.762;2023-07-22T07:58:46;24.00;78.90
22161;DHT22;49035;48.812;11.762;2023-07-22T08:01:12;24.20;77.10
22161;DHT22;49035;48.812;11.762;2023-07-22T08:03:39;24.00;79.00
22161;DHT22;49035;48.812;11.762;2023-07-22T08:06:05;24.30;76.40
22161;DHT22;49035;48.812;11.762;2023-07-22T08:08:32;25.00;74.10
22161;DHT22;49035;48.812;11.762;2023-07-22T08:11:02;25.40;76.00
22161;DHT22;49035;48.812;11.762;2023-07-22T08:13:28;25.30;74.20
22161;DHT22;49035;48.812;11.762;2023-07-22T08:15:56;25.40;70.80
22161;DHT22;49035;48.812;11.762;2023-07-22T08:18:22;25.60;71.80
22161;DHT22;49035;48.812;11.762;2023-07-22T08:20:47;25.20;75.00
22161;DHT22;49035;48.812;11.762;2023-07-22T08:23:14;25.80;74.70
22161;DHT22;49035;48.812;11.762;2023-07-22T08:25:39;26.30;68.80
22161;DHT22;49035;48.812;11.762;2023-07-22T08:28:05;26.40;70.90
22161;DHT22;49035;48.812;11.762;2023-07-22T08:30:30;26.70;70.70
22161;DHT22;49035;48.812;11.762;2023-07-22T08:32:56;26.50;68.70
22161;DHT22;49035;48.812;11.762;2023-07-22T08:35:22;26.60;69.40
22161;DHT22;49035;48.812;11.762;2023-07-22T08:37:48;26.50;68.50
22161;DHT22;49035;48.812;11.762;2023-07-22T08:40:14;26.80;69.10
22161;DHT22;49035;48.812;11.762;2023-07-22T08:42:41;27.20;64.10
22161;DHT22;49035;48.812;11.762;2023-07-22T08:45:09;27.40;65.40
22161;DHT22;49035;48.812;11.762;2023-07-22T08:47:39;27.50;65.20
22161;DHT22;49035;48.812;11.762;2023-07-22T08:50:07;27.80;63.10
22161;DHT22;49035;48.812;11.762;2023-07-22T08:52:33;28.00;62.00
22161;DHT22;49035;48.812;11.762;2023-07-22T08:55:00;27.70;59.60
22161;DHT22;49035;48.812;11.762;2023-07-22T08:57:27;27.70;60.10
22161;DHT22;49035;48.812;11.762;2023-07-22T08:59:54;27.30;60.50
22161;DHT22;49035;48.812;11.762;2023-07-22T09:02:21;27.10;60.70
22161;DHT22;49035;48.812;11.762;2023-07-22T09:04:46;26.20;59.60
22161;DHT22;49035;48.812;11.762;2023-07-22T09:07:12;26.00;63.10
22161;DHT22;49035;48.812;11.762;2023-07-22T09:09:39;26.20;64.00
22161;DHT22;49035;48.812;11.762;2023-07-22T09:12:06;26.50;60.60
22161;DHT22;49035;48.812;11.762;2023-07-22T09:14:33;26.90;60.40
22161;DHT22;49035;48.812;11.762;2023-07-22T09:16:59;26.80;57.10
22161;DHT22;49035;48.812;11.762;2023-07-22T09:19:25;25.60;60.10
22161;DHT22;49035;48.812;11.762;2023-07-22T09:21:51;25.40;66.30
22161;DHT22;49035;48.812;11.762;2023-07-22T09:24:24;25.80;62.50
22161;DHT22;49035;48.812;11.762;2023-07-22T09:26:50;26.00;62.30
22161;DHT22;49035;48.812;11.762;2023-07-22T09:29:16;25.50;62.70
22161;DHT22;49035;48.812;11.762;2023-07-22T09:31:54;25.90;64.90
22161;DHT22;49035;48.812;11.762;2023-07-22T09:34:20;26.10;60.90
22161;DHT22;49035;48.812;11.762;2023-07-22T09:36:56;26.30;63.10
22161;DHT22;49035;48.812;11.762;2023-07-22T09:39:23;26.70;61.80
22161;DHT22;49035;48.812;11.762;2023-07-22T09:41:49;27.10;58.90
22161;DHT22;49035;48.812;11.762;2023-07-22T09:44:15;27.50;59.90
22161;DHT22;49035;48.812;11.762;2023-07-22T09:46:41;28.10;57.60
22161;DHT22;49035;48.812;11.762;2023-07-22T09:49:13;28.50;58.90
22161;DHT22;49035;48.812;11.762;2023-07-22T09:51:39;28.60;55.60
22161;DHT22;49035;48.812;11.762;2023-07-22T09:54:06;28.00;55.10
22161;DHT22;49035;48.812;11.762;2023-07-22T09:56:33;27.80;56.40
22161;DHT22;49035;48.812;11.762;2023-07-22T09:59:08;28.00;58.20
22161;DHT22;49035;48.812;11.762;2023-07-22T10:01:37;28.00;56.50
22161;DHT22;49035;48.812;11.762;2023-07-22T10:04:04;28.20;57.10
22161;DHT22;49035;48.812;11.762;2023-07-22T10:06:31;28.60;54.60
22161;DHT22;49035;48.812;11.762;2023-07-22T10:09:02;29.00;53.30
22161;DHT22;49035;48.812;11.762;2023-07-22T10:11:30;28.70;52.20
22161;DHT22;49035;48.812;11.762;2023-07-22T10:13:58;27.80;53.70
22161;DHT22;49035;48.812;11.762;2023-07-22T10:16:24;28.00;52.80
22161;DHT22;49035;48.812;11.762;2023-07-22T10:18:50;27.50;52.00
22161;DHT22;49035;48.812;11.762;2023-07-22T10:21:17;27.30;58.00
22161;DHT22;49035;48.812;11.762;2023-07-22T10:23:43;27.20;52.60
22161;DHT22;49035;48.812;11.762;2023-07-22T10:26:11;27.20;55.00
22161;DHT22;49035;48.812;11.762;2023-07-22T10:28:40;27.90;56.40
22161;DHT22;49035;48.812;11.762;2023-07-22T10:31:07;28.30;54.60
22161;DHT22;49035;48.812;11.762;2023-07-22T10:33:34;28.70;55.50
22161;DHT22;49035;48.812;11.762;2023-07-22T10:36:06;29.10;53.10
22161;DHT22;49035;48.812;11.762;2023-07-22T10:38:34;29.10;50.30
22161;DHT22;49035;48.812;11.762;2023-07-22T10:40:59;28.20;48.00
22161;DHT22;49035;48.812;11.762;2023-07-22T10:45:53;27.40;49.60
22161;DHT22;49035;48.812;11.762;2023-07-22T10:48:19;26.50;52.90
22161;DHT22;49035;48.812;11.762;2023-07-22T10:50:47;25.80;54.90
22161;DHT22;49035;48.812;11.762;2023-07-22T10:53:29;25.70;54.80
22161;DHT22;49035;48.812;11.762;2023-07-22T11:01:33;24.40;58.30
22161;DHT22;49035;48.812;11.762;2023-07-22T11:12:16;26.50;55.70
22161;DHT22;49035;48.812;11.762;2023-07-22T11:14:52;27.40;53.80
22161;DHT22;49035;48.812;11.762;2023-07-22T11:17:29;27.80;51.40
22161;DHT22;49035;48.812;11.762;2023-07-22T11:19:56;28.00;55.20
22161;DHT22;49035;48.812;11.762;2023-07-22T11:22:21;28.60;53.50
22161;DHT22;49035;48.812;11.762;2023-07-22T11:24:48;28.30;53.20
22161;DHT22;49035;48.812;11.762;2023-07-22T11:27:13;28.50;50.70
22161;DHT22;49035;48.812;11.762;2023-07-22T11:29:40;29.40;50.70
22161;DHT22;49035;48.812;11.762;2023-07-22T11:32:06;29.40;51.20
22161;DHT22;49035;48.812;11.762;2023-07-22T11:34:33;29.50;49.50
22161;DHT22;49035;48.812;11.762;2023-07-22T11:36:59;29.70;49.90
22161;DHT22;49035;48.812;11.762;2023-07-22T11:39:26;28.50;46.20
22161;DHT22;49035;48.812;11.762;2023-07-22T11:41:52;28.10;48.90
22161;DHT22;49035;48.812;11.762;2023-07-22T11:44:25;28.40;50.70
22161;DHT22;49035;48.812;11.762;2023-07-22T11:46:58;28.60;47.50
22161;DHT22;49035;48.812;11.762;2023-07-22T11:49:32;27.40;49.40
22161;DHT22;49035;48.812;11.762;2023-07-22T11:52:00;26.50;50.30
22161;DHT22;49035;48.812;11.762;2023-07-22T11:54:26;25.80;51.80
22161;DHT22;49035;48.812;11.762;2023-07-22T11:56:52;24.90;53.70
22161;DHT22;49035;48.812;11.762;2023-07-22T11:59:31;24.60;53.20
22161;DHT22;49035;48.812;11.762;2023-07-22T12:01:57;25.00;55.50
22161;DHT22;49035;48.812;11.762;2023-07-22T12:04:23;25.70;55.40
22161;DHT22;49035;48.812;11.762;2023-07-22T12:06:49;27.20;55.30
22161;DHT22;49035;48.812;11.762;2023-07-22T12:09:14;28.10;50.50
22161;DHT22;49035;48.812;11.762;2023-07-22T12:11:40;28.30;48.90
22161;DHT22;49035;48.812;11.762;2023-07-22T12:14:13;28.50;51.10
22161;DHT22;49035;48.812;11.762;2023-07-22T12:16:40;28.30;48.10
22161;DHT22;49035;48.812;11.762;2023-07-22T12:19:07;28.10;48.10
22161;DHT22;49035;48.812;11.762;2023-07-22T12:21:34;27.90;48.60
22161;DHT22;49035;48.812;11.762;2023-07-22T12:24:00;28.20;53.40
22161;DHT22;49035;48.812;11.762;2023-07-22T12:26:26;28.40;47.70
22161;DHT22;49035;48.812;11.762;2023-07-22T12:28:52;28.60;47.20
22161;DHT22;49035;48.812;11.762;2023-07-22T12:31:18;28.20;47.10
22161;DHT22;49035;48.812;11.762;2023-07-22T12:33:44;27.90;49.70
22161;DHT22;49035;48.812;11.762;2023-07-22T12:36:10;28.00;46.40
22161;DHT22;49035;48.812;11.762;2023-07-22T12:38:35;27.40;48.10
22161;DHT22;49035;48.812;11.762;2023-07-22T12:41:01;26.80;51.70
22161;DHT22;49035;48.812;11.762;2023-07-22T12:43:27;26.20;51.30
22161;DHT22;49035;48.812;11.762;2023-07-22T12:45:53;26.10;51.70
22161;DHT22;49035;48.812;11.762;2023-07-22T12:48:19;26.30;53.40
22161;DHT22;49035;48.812;11.762;2023-07-22T12:50:45;26.00;50.00
22161;DHT22;49035;48.812;11.762;2023-07-22T12:53:13;25.70;52.20
22161;DHT22;49035;48.812;11.762;2023-07-22T12:55:38;25.40;50.70
22161;DHT22;49035;48.812;11.762;2023-07-22T12:58:04;25.80;53.60
22161;DHT22;49035;48.812;11.762;2023-07-22T13:00:30;26.70;55.10
22161;DHT22;49035;48.812;11.762;2023-07-22T13:02:56;27.50;53.20
22161;DHT22;49035;48.812;11.762;2023-07-22T13:05:22;28.40;51.60
22161;DHT22;49035;48.812;11.762;2023-07-22T13:07:48;29.10;47.90
22161;DHT22;49035;48.812;11.762;2023-07-22T13:10:15;29.70;48.20
22161;DHT22;49035;48.812;11.762;2023-07-22T13:12:43;30.30;46.50
22161;DHT22;49035;48.812;11.762;2023-07-22T13:15:09;28.80;44.80
22161;DHT22;49035;48.812;11.762;2023-07-22T13:17:35;26.90;47.50
22161;DHT22;49035;48.812;11.762;2023-07-22T13:20:02;26.00;50.20
22161;DHT22;49035;48.812;11.762;2023-07-22T13:22:32;26.20;50.90
22161;DHT22;49035;48.812;11.762;2023-07-22T13:24:58;26.20;49.20
22161;DHT22;49035;48.812;11.762;2023-07-22T13:27:24;26.50;50.30
22161;DHT22;49035;48.812;11.762;2023-07-22T13:29:49;27.40;51.90
22161;DHT22;49035;48.812;11.762;2023-07-22T13:32:15;27.90;47.00
22161;DHT22;49035;48.812;11.762;2023-07-22T13:34:41;28.20;53.10
22161;DHT22;49035;48.812;11.762;2023-07-22T13:37:06;28.20;47.80
22161;DHT22;49035;48.812;11.762;2023-07-22T13:39:32;28.40;51.20
22161;DHT22;49035;48.812;11.762;2023-07-22T13:41:59;28.70;46.00
22161;DHT22;49035;48.812;11.762;2023-07-22T13:44:24;28.80;47.10
22161;DHT22;49035;48.812;11.762;2023-07-22T13:46:50;29.60;47.80
22161;DHT22;49035;48.812;11.762;2023-07-22T13:49:15;30.10;45.90
22161;DHT22;49035;48.812;11.762;2023-07-22T13:51:41;30.00;46.60
22161;DHT22;49035;48.812;11.762;2023-07-22T13:54:07;30.40;42.60
22161;DHT22;49035;48.812;11.762;2023-07-22T13:56:32;29.40;44.40
22161;DHT22;49035;48.812;11.762;2023-07-22T13:59:00;28.40;44.90
22161;DHT22;49035;48.812;11.762;2023-07-22T14:01:26;28.30;45.70
22161;DHT22;49035;48.812;11.762;2023-07-22T14:03:52;27.90;44.90
22161;DHT22;49035;48.812;11.762;2023-07-22T14:06:17;26.70;47.50
22161;DHT22;49035;48.812;11.762;2023-07-22T14:08:43;26.30;49.50
22161;DHT22;49035;48.812;11.762;2023-07-22T14:11:09;26.20;50.70
22161;DHT22;49035;48.812;11.762;2023-07-22T14:13:34;26.10;49.80
22161;DHT22;49035;48.812;11.762;2023-07-22T14:16:01;26.20;49.80
22161;DHT22;49035;48.812;11.762;2023-07-22T14:18:26;26.50;49.60
22161;DHT22;49035;48.812;11.762;2023-07-22T14:20:52;26.60;49.60
22161;DHT22;49035;48.812;11.762;2023-07-22T14:23:17;27.00;48.90
22161;DHT22;49035;48.812;11.762;2023-07-22T14:25:43;27.30;46.70
22161;DHT22;49035;48.812;11.762;2023-07-22T14:28:09;28.20;49.10
22161;DHT22;49035;48.812;11.762;2023-07-22T14:30:34;29.30;47.80
22161;DHT22;49035;48.812;11.762;2023-07-22T14:33:00;30.10;44.90
22161;DHT22;49035;48.812;11.762;2023-07-22T14:35:25;30.60;42.60
22161;DHT22;49035;48.812;11.762;2023-07-22T14:37:51;30.50;40.80
22161;DHT22;49035;48.812;11.762;2023-07-22T14:40:17;28.90;42.40
22161;DHT22;49035;48.812;11.762;2023-07-22T14:42:42;27.90;44.40
22161;DHT22;49035;48.812;11.762;2023-07-22T14:45:08;27.50;43.90
22161;DHT22;49035;48.812;11.762;2023-07-22T14:47:34;28.10;43.80
22161;DHT22;49035;48.812;11.762;2023-07-22T14:50:00;28.20;45.20
22161;DHT22;49035;48.812;11.762;2023-07-22T14:52:26;28.10;45.50
22161;DHT22;49035;48.812;11.762;2023-07-22T14:54:52;28.50;45.20
22161;DHT22;49035;48.812;11.762;2023-07-22T14:57:18;28.70;44.90
22161;DHT22;49035;48.812;11.762;2023-07-22T14:59:43;28.90;46.10
22161;DHT22;49035;48.812;11.762;2023-07-22T15:02:09;29.60;46.00
22161;DHT22;49035;48.812;11.762;2023-07-22T15:04:35;30.00;44.10
22161;DHT22;49035;48.812;11.762;2023-07-22T15:07:01;29.40;42.80
22161;DHT22;49035;48.812;11.762;2023-07-22T15:09:27;29.30;45.60
22161;DHT22;49035;48.812;11.762;2023-07-22T15:11:53;29.70;44.40
22161;DHT22;49035;48.812;11.762;2023-07-22T15:14:18;29.70;43.10
22161;DHT22;49035;48.812;11.762;2023-07-22T15:16:44;30.30;43.70
22161;DHT22;49035;48.812;11.762;2023-07-22T15:19:11;31.00;43.20
22161;DHT22;49035;48.812;11.762;2023-07-22T15:21:37;31.40;41.00
22161;DHT22;49035;48.812;11.762;2023-07-22T15:24:02;31.60;39.70
22161;DHT22;49035;48.812;11.762;2023-07-22T15:26:28;31.60;40.80
22161;DHT22;49035;48.812;11.762;2023-07-22T15:28:54;31.50;40.80
22161;DHT22;49035;48.812;11.762;2023-07-22T15:31:20;30.70;41.80